Accueil
METAR-TAF:

METAR-TAF

Aéroports :

Aéroport de Milan-Linate

Milan, Italie

latitude: 45-26N, longitude: 009-17E, altitude: 107 m

Observation

Le bulletin a été fait il y a 43 minutes, à 08:20 UTC
Vent 1 kt de direction variable
Température 1°C
Humidité 86%
Pression 1028 hPa
Visibilité: 4000 m
brume

METAR: LIML 240820Z VRB01KT 4000 BR NSC 01/M01 Q1028 NOSIG

Heure: 10:03 (09:03 UTC)

Prévision

Le bulletin a été fait il y a 4 heures et 3 minutes, à 05:00 UTC
Prévision valable du 24 à 06 UTC au 25 à 06 UTC
Vent 5 kt de direction variable
Visibilité: 7000 m
Nuages épars à une hauteur de 3000 ft
Nuages épars à une hauteur de 6000 ft
Temporairement
du 24 à 06 UTC au 24 à 08 UTC
Visibilité: 1200 m
bancs de brouillard
Temporairement
du 24 à 21 UTC au 25 à 06 UTC
pluie

TAF: LIML 240500Z 2406/2506 VRB05KT 7000 SCT030 SCT060 TEMPO 2406/2408 1200 BCFG TEMPO 2421/2506 RA

Observations et prévisions météorologiques de plus de 4000 aéroports (messages METAR et TAF).

Les stations disponibles sont représentées par des disques jaunes et rouges sur la carte.

Passer la souris dessus pour voir le nom de la station.

Cliquer dessus pour voir les observations et prévisions météorologiques.

Pour changer de carte: cliquez sur les boutons verts avec une croix noire pour zoomer, sur le bouton vert avec un tiret pour effectuer un zoom arrière, ou sur les flèches vertes pour les cartes adjacentes.


METAR-TAF: